SCRIPT_RESULTS Banner
TAF for LQTZ

by Dr. Günther Eichhorn

TAF for LQTZ provided by aerobaticsweb.org
Current time: Saturday, 28 May, 2022, 19:33 UTC
(This may take a minute, please be patient)


The most recent TAF forecast from LQTZ in our system was generated at
2022/05/28 18:08
The forecast is:
LQTZ 2022/05/28 18:08
TAF LQTZ 281700Z 2818/2918 09008KT 9999 BKN040 TX17/2913Z TN12/2903Z
TEMPO 2818/2824 5000 SHRA FEW030TCU BKN035
TEMPO 2900/2912 5000 RA



access provided by Dr. Guenther Eichhorn at aerobaticsweb.org